sensor_id;sensor_type;location;lat;lon;timestamp;pressure;altitude;pressure_sealevel;temperature;humidity
72414;BME280;60995;52.154;4.498;2023-09-12T00:01:47;101478.13;;;20.37;100.00
72414;BME280;60995;52.154;4.498;2023-09-12T00:04:03;101494.38;;;20.31;100.00
72414;BME280;60995;52.154;4.498;2023-09-12T00:06:20;101487.97;;;20.31;100.00
72414;BME280;60995;52.154;4.498;2023-09-12T00:08:36;101489.16;;;20.37;100.00
72414;BME280;60995;52.154;4.498;2023-09-12T00:11:09;101499.50;;;20.35;100.00
72414;BME280;60995;52.154;4.498;2023-09-12T00:13:27;101509.97;;;20.39;100.00
72414;BME280;60995;52.154;4.498;2023-09-12T00:15:43;101498.38;;;20.44;100.00
72414;BME280;60995;52.154;4.498;2023-09-12T00:17:59;101496.69;;;20.43;100.00
72414;BME280;60995;52.154;4.498;2023-09-12T00:20:16;101483.75;;;20.43;100.00
72414;BME280;60995;52.154;4.498;2023-09-12T00:22:32;101481.94;;;20.36;100.00
72414;BME280;60995;52.154;4.498;2023-09-12T00:24:48;101476.22;;;20.37;100.00
72414;BME280;60995;52.154;4.498;2023-09-12T00:27:05;101475.19;;;20.38;100.00
72414;BME280;60995;52.154;4.498;2023-09-12T00:29:21;101483.53;;;20.30;100.00
72414;BME280;60995;52.154;4.498;2023-09-12T00:31:38;101485.81;;;20.26;100.00
72414;BME280;60995;52.154;4.498;2023-09-12T00:33:54;101494.41;;;20.23;100.00
72414;BME280;60995;52.154;4.498;2023-09-12T00:36:10;101500.81;;;20.24;100.00
72414;BME280;60995;52.154;4.498;2023-09-12T00:38:26;101497.19;;;20.23;100.00
72414;BME280;60995;52.154;4.498;2023-09-12T00:40:42;101484.47;;;20.22;100.00
72414;BME280;60995;52.154;4.498;2023-09-12T00:42:59;101490.34;;;20.19;100.00
72414;BME280;60995;52.154;4.498;2023-09-12T00:45:15;101482.44;;;20.16;100.00
72414;BME280;60995;52.154;4.498;2023-09-12T00:47:31;101480.38;;;20.18;100.00
72414;BME280;60995;52.154;4.498;2023-09-12T00:49:49;101490.72;;;20.16;100.00
72414;BME280;60995;52.154;4.498;2023-09-12T00:52:08;101480.06;;;20.13;100.00
72414;BME280;60995;52.154;4.498;2023-09-12T00:54:24;101488.16;;;20.14;100.00
72414;BME280;60995;52.154;4.498;2023-09-12T00:56:41;101475.94;;;20.09;100.00
72414;BME280;60995;52.154;4.498;2023-09-12T00:58:58;101477.97;;;20.15;100.00
72414;BME280;60995;52.154;4.498;2023-09-12T01:01:15;101472.16;;;20.10;100.00
72414;BME280;60995;52.154;4.498;2023-09-12T01:03:31;101481.47;;;20.09;100.00
72414;BME280;60995;52.154;4.498;2023-09-12T01:05:48;101485.19;;;20.16;100.00
72414;BME280;60995;52.154;4.498;2023-09-12T01:08:05;101492.06;;;20.20;100.00
72414;BME280;60995;52.154;4.498;2023-09-12T01:10:21;101493.16;;;20.11;100.00
72414;BME280;60995;52.154;4.498;2023-09-12T01:12:37;101492.13;;;20.12;100.00
72414;BME280;60995;52.154;4.498;2023-09-12T01:14:54;101493.16;;;20.11;100.00
72414;BME280;60995;52.154;4.498;2023-09-12T01:17:11;101489.41;;;20.04;100.00
72414;BME280;60995;52.154;4.498;2023-09-12T01:19:27;101485.44;;;20.06;100.00
72414;BME280;60995;52.154;4.498;2023-09-12T01:25:07;101505.78;;;20.05;100.00
72414;BME280;60995;52.154;4.498;2023-09-12T01:27:46;101502.84;;;20.07;100.00
72414;BME280;60995;52.154;4.498;2023-09-12T01:30:07;101501.19;;;19.97;100.00
72414;BME280;60995;52.154;4.498;2023-09-12T01:32:24;101503.25;;;19.95;100.00
72414;BME280;60995;52.154;4.498;2023-09-12T01:34:41;101515.31;;;19.94;100.00
72414;BME280;60995;52.154;4.498;2023-09-12T01:36:57;101528.44;;;19.92;100.00
72414;BME280;60995;52.154;4.498;2023-09-12T01:39:14;101528.78;;;19.89;100.00
72414;BME280;60995;52.154;4.498;2023-09-12T01:41:32;101535.03;;;19.83;100.00
72414;BME280;60995;52.154;4.498;2023-09-12T01:43:54;101533.81;;;19.77;100.00
72414;BME280;60995;52.154;4.498;2023-09-12T01:46:12;101537.47;;;19.70;100.00
72414;BME280;60995;52.154;4.498;2023-09-12T01:48:33;101538.16;;;19.72;100.00
72414;BME280;60995;52.154;4.498;2023-09-12T01:50:52;101537.00;;;19.66;100.00
72414;BME280;60995;52.154;4.498;2023-09-12T01:53:10;101541.81;;;19.64;100.00
72414;BME280;60995;52.154;4.498;2023-09-12T01:55:27;101538.03;;;19.65;100.00
72414;BME280;60995;52.154;4.498;2023-09-12T01:57:43;101545.09;;;19.59;100.00
72414;BME280;60995;52.154;4.498;2023-09-12T02:00:00;101540.47;;;19.60;100.00
72414;BME280;60995;52.154;4.498;2023-09-12T02:02:16;101554.41;;;19.58;100.00
72414;BME280;60995;52.154;4.498;2023-09-12T02:04:33;101560.41;;;19.62;100.00
72414;BME280;60995;52.154;4.498;2023-09-12T02:06:49;101560.41;;;19.62;100.00
72414;BME280;60995;52.154;4.498;2023-09-12T02:09:05;101561.28;;;19.62;100.00
72414;BME280;60995;52.154;4.498;2023-09-12T02:11:21;101568.19;;;19.58;100.00
72414;BME280;60995;52.154;4.498;2023-09-12T02:13:38;101573.19;;;19.55;100.00
72414;BME280;60995;52.154;4.498;2023-09-12T02:16:03;101579.56;;;19.47;100.00
72414;BME280;60995;52.154;4.498;2023-09-12T02:18:19;101581.63;;;19.45;100.00
72414;BME280;60995;52.154;4.498;2023-09-12T02:20:38;101589.56;;;19.48;100.00
72414;BME280;60995;52.154;4.498;2023-09-12T02:22:57;101592.63;;;19.45;100.00
72414;BME280;60995;52.154;4.498;2023-09-12T02:25:13;101602.28;;;19.41;100.00
72414;BME280;60995;52.154;4.498;2023-09-12T02:27:29;101607.78;;;19.41;100.00
72414;BME280;60995;52.154;4.498;2023-09-12T02:29:45;101610.91;;;19.38;100.00
72414;BME280;60995;52.154;4.498;2023-09-12T02:32:01;101617.81;;;19.33;100.00
72414;BME280;60995;52.154;4.498;2023-09-12T02:34:18;101615.38;;;19.39;100.00
72414;BME280;60995;52.154;4.498;2023-09-12T02:36:35;101621.91;;;19.38;100.00
72414;BME280;60995;52.154;4.498;2023-09-12T02:38:51;101611.28;;;19.26;100.00
72414;BME280;60995;52.154;4.498;2023-09-12T02:41:07;101620.09;;;19.22;100.00
72414;BME280;60995;52.154;4.498;2023-09-12T02:43:23;101615.06;;;19.25;100.00
72414;BME280;60995;52.154;4.498;2023-09-12T02:45:40;101608.72;;;19.25;100.00
72414;BME280;60995;52.154;4.498;2023-09-12T02:47:56;101611.66;;;19.23;100.00
72414;BME280;60995;52.154;4.498;2023-09-12T02:50:12;101610.78;;;19.23;100.00
72414;BME280;60995;52.154;4.498;2023-09-12T02:52:28;101612.84;;;19.21;100.00
72414;BME280;60995;52.154;4.498;2023-09-12T02:54:44;101612.34;;;19.17;100.00
72414;BME280;60995;52.154;4.498;2023-09-12T02:57:01;101602.53;;;19.14;100.00
72414;BME280;60995;52.154;4.498;2023-09-12T02:59:17;101607.88;;;19.16;100.00
72414;BME280;60995;52.154;4.498;2023-09-12T03:01:34;101607.19;;;19.22;100.00
72414;BME280;60995;52.154;4.498;2023-09-12T03:03:51;101604.59;;;19.12;100.00
72414;BME280;60995;52.154;4.498;2023-09-12T03:06:07;101601.38;;;19.09;100.00
72414;BME280;60995;52.154;4.498;2023-09-12T03:08:23;101613.03;;;19.11;100.00
72414;BME280;60995;52.154;4.498;2023-09-12T03:10:40;101608.94;;;19.07;100.00
72414;BME280;60995;52.154;4.498;2023-09-12T03:12:56;101613.38;;;19.16;100.00
72414;BME280;60995;52.154;4.498;2023-09-12T03:15:12;101616.13;;;19.16;100.00
72414;BME280;60995;52.154;4.498;2023-09-12T03:17:28;101613.03;;;19.11;100.00
72414;BME280;60995;52.154;4.498;2023-09-12T03:19:45;101609.63;;;19.09;100.00
72414;BME280;60995;52.154;4.498;2023-09-12T03:22:01;101614.94;;;19.10;100.00
72414;BME280;60995;52.154;4.498;2023-09-12T03:24:17;101619.03;;;19.23;100.00
72414;BME280;60995;52.154;4.498;2023-09-12T03:26:35;101623.50;;;19.24;100.00
72414;BME280;60995;52.154;4.498;2023-09-12T03:28:52;101625.75;;;19.20;100.00
72414;BME280;60995;52.154;4.498;2023-09-12T03:31:10;101613.00;;;19.27;100.00
72414;BME280;60995;52.154;4.498;2023-09-12T03:33:28;101621.56;;;19.41;100.00
72414;BME280;60995;52.154;4.498;2023-09-12T03:35:44;101620.91;;;19.39;100.00
72414;BME280;60995;52.154;4.498;2023-09-12T03:38:00;101621.22;;;19.36;100.00
72414;BME280;60995;52.154;4.498;2023-09-12T03:40:17;101614.50;;;19.38;100.00
72414;BME280;60995;52.154;4.498;2023-09-12T03:42:33;101604.06;;;19.33;100.00
72414;BME280;60995;52.154;4.498;2023-09-12T03:44:49;101604.72;;;19.36;100.00
72414;BME280;60995;52.154;4.498;2023-09-12T03:47:05;101606.94;;;19.40;100.00
72414;BME280;60995;52.154;4.498;2023-09-12T03:49:22;101601.25;;;19.42;100.00
72414;BME280;60995;52.154;4.498;2023-09-12T03:51:38;101604.00;;;19.42;100.00
72414;BME280;60995;52.154;4.498;2023-09-12T03:53:54;101595.56;;;19.43;100.00
72414;BME280;60995;52.154;4.498;2023-09-12T03:56:11;101591.16;;;19.34;100.00
72414;BME280;60995;52.154;4.498;2023-09-12T03:58:28;101585.28;;;19.37;100.00
72414;BME280;60995;52.154;4.498;2023-09-12T04:00:44;101586.06;;;19.54;100.00
72414;BME280;60995;52.154;4.498;2023-09-12T04:03:00;101574.56;;;19.50;100.00
72414;BME280;60995;52.154;4.498;2023-09-12T04:05:17;101573.38;;;19.53;100.00
72414;BME280;60995;52.154;4.498;2023-09-12T04:07:33;101571.78;;;19.59;100.00
72414;BME280;60995;52.154;4.498;2023-09-12T04:09:49;101561.28;;;19.54;100.00
72414;BME280;60995;52.154;4.498;2023-09-12T04:12:06;101556.47;;;19.56;100.00
72414;BME280;60995;52.154;4.498;2023-09-12T04:14:23;101553.00;;;19.62;100.00
72414;BME280;60995;52.154;4.498;2023-09-12T04:16:39;101557.50;;;19.63;100.00
72414;BME280;60995;52.154;4.498;2023-09-12T04:18:55;101560.25;;;19.55;100.00
72414;BME280;60995;52.154;4.498;2023-09-12T04:21:11;101558.19;;;19.57;100.00
72414;BME280;60995;52.154;4.498;2023-09-12T04:23:27;101562.69;;;19.50;100.00
72414;BME280;60995;52.154;4.498;2023-09-12T04:25:46;101567.88;;;19.45;100.00
72414;BME280;60995;52.154;4.498;2023-09-12T04:28:02;101564.91;;;19.55;100.00
72414;BME280;60995;52.154;4.498;2023-09-12T04:30:19;101571.59;;;19.60;100.00
72414;BME280;60995;52.154;4.498;2023-09-12T04:32:35;101566.47;;;19.57;100.00
72414;BME280;60995;52.154;4.498;2023-09-12T04:34:51;101565.75;;;19.63;100.00
72414;BME280;60995;52.154;4.498;2023-09-12T04:37:08;101561.09;;;19.64;100.00
72414;BME280;60995;52.154;4.498;2023-09-12T04:39:24;101566.06;;;19.69;100.00
72414;BME280;60995;52.154;4.498;2023-09-12T04:41:40;101555.97;;;19.53;100.00
72414;BME280;60995;52.154;4.498;2023-09-12T04:43:57;101560.81;;;19.42;100.00
72414;BME280;60995;52.154;4.498;2023-09-12T04:46:14;101574.06;;;19.47;100.00
72414;BME280;60995;52.154;4.498;2023-09-12T04:48:30;101574.56;;;19.50;100.00
72414;BME280;60995;52.154;4.498;2023-09-12T04:50:47;101566.88;;;19.38;100.00
72414;BME280;60995;52.154;4.498;2023-09-12T04:53:04;101571.84;;;19.42;100.00
72414;BME280;60995;52.154;4.498;2023-09-12T04:55:20;101589.41;;;19.41;100.00
72414;BME280;60995;52.154;4.498;2023-09-12T04:57:36;101592.50;;;19.38;100.00
72414;BME280;60995;52.154;4.498;2023-09-12T04:59:52;101590.91;;;19.52;100.00
72414;BME280;60995;52.154;4.498;2023-09-12T05:02:09;101589.22;;;19.43;100.00
72414;BME280;60995;52.154;4.498;2023-09-12T05:04:25;101594.38;;;19.46;100.00
72414;BME280;60995;52.154;4.498;2023-09-12T05:06:42;101600.69;;;19.55;100.00
72414;BME280;60995;52.154;4.498;2023-09-12T05:08:58;101594.50;;;19.53;100.00
72414;BME280;60995;52.154;4.498;2023-09-12T05:11:14;101593.28;;;19.55;100.00
72414;BME280;60995;52.154;4.498;2023-09-12T05:13:31;101605.31;;;19.62;100.00
72414;BME280;60995;52.154;4.498;2023-09-12T05:15:47;101605.22;;;19.79;100.00
72414;BME280;60995;52.154;4.498;2023-09-12T05:18:04;101596.59;;;19.90;100.00
72414;BME280;60995;52.154;4.498;2023-09-12T05:20:20;101577.38;;;19.82;100.00
72414;BME280;60995;52.154;4.498;2023-09-12T05:22:36;101571.69;;;19.83;100.00
72414;BME280;60995;52.154;4.498;2023-09-12T05:24:53;101558.75;;;19.84;100.00
72414;BME280;60995;52.154;4.498;2023-09-12T05:27:10;101558.75;;;19.84;100.00
72414;BME280;60995;52.154;4.498;2023-09-12T05:29:26;101550.47;;;19.92;100.00
72414;BME280;60995;52.154;4.498;2023-09-12T05:31:42;101550.09;;;19.95;100.00
72414;BME280;60995;52.154;4.498;2023-09-12T05:33:59;101554.38;;;19.98;100.00
72414;BME280;60995;52.154;4.498;2023-09-12T05:36:15;101544.34;;;20.05;100.00
72414;BME280;60995;52.154;4.498;2023-09-12T05:38:31;101546.03;;;20.06;100.00
72414;BME280;60995;52.154;4.498;2023-09-12T05:40:48;101545.47;;;19.96;100.00
72414;BME280;60995;52.154;4.498;2023-09-12T05:43:05;101547.34;;;19.95;100.00
72414;BME280;60995;52.154;4.498;2023-09-12T05:45:22;101549.06;;;19.96;100.00
72414;BME280;60995;52.154;4.498;2023-09-12T05:47:38;101549.72;;;19.98;100.00
72414;BME280;60995;52.154;4.498;2023-09-12T05:49:55;101540.06;;;20.03;100.00
72414;BME280;60995;52.154;4.498;2023-09-12T05:52:11;101541.03;;;20.10;100.00
72414;BME280;60995;52.154;4.498;2023-09-12T05:54:28;101534.88;;;20.08;100.00
72414;BME280;60995;52.154;4.498;2023-09-12T05:56:44;101535.41;;;20.03;100.00
72414;BME280;60995;52.154;4.498;2023-09-12T05:59:00;101536.09;;;20.05;100.00
72414;BME280;60995;52.154;4.498;2023-09-12T06:01:16;101539.56;;;19.99;100.00
72414;BME280;60995;52.154;4.498;2023-09-12T06:03:33;101541.75;;;20.04;100.00
72414;BME280;60995;52.154;4.498;2023-09-12T06:05:49;101545.19;;;20.06;100.00
72414;BME280;60995;52.154;4.498;2023-09-12T06:08:05;101538.59;;;20.15;100.00
72414;BME280;60995;52.154;4.498;2023-09-12T06:10:22;101544.50;;;20.04;100.00
72414;BME280;60995;52.154;4.498;2023-09-12T06:12:38;101538.84;;;20.05;100.00
72414;BME280;60995;52.154;4.498;2023-09-12T06:14:54;101544.31;;;20.28;100.00
72414;BME280;60995;52.154;4.498;2023-09-12T06:17:11;101530.69;;;20.35;100.00
72414;BME280;60995;52.154;4.498;2023-09-12T06:19:28;101535.28;;;20.43;100.00
72414;BME280;60995;52.154;4.498;2023-09-12T06:21:44;101532.44;;;20.51;100.00
72414;BME280;60995;52.154;4.498;2023-09-12T06:26:27;101514.50;;;20.70;100.00
72414;BME280;60995;52.154;4.498;2023-09-12T06:28:43;101523.09;;;20.90;100.00
72414;BME280;60995;52.154;4.498;2023-09-12T06:31:00;101510.06;;;20.84;100.00
72414;BME280;60995;52.154;4.498;2023-09-12T06:33:16;101511.13;;;20.98;100.00
72414;BME280;60995;52.154;4.498;2023-09-12T06:35:32;101510.63;;;21.24;100.00
72414;BME280;60995;52.154;4.498;2023-09-12T06:37:49;101502.78;;;21.43;100.00
72414;BME280;60995;52.154;4.498;2023-09-12T06:40:07;101497.19;;;21.36;100.00
72414;BME280;60995;52.154;4.498;2023-09-12T06:42:23;101484.34;;;21.28;100.00
72414;BME280;60995;52.154;4.498;2023-09-12T06:44:40;101483.22;;;21.08;100.00
72414;BME280;60995;52.154;4.498;2023-09-12T06:46:56;101470.00;;;21.18;100.00
72414;BME280;60995;52.154;4.498;2023-09-12T06:49:13;101472.41;;;21.43;100.00
72414;BME280;60995;52.154;4.498;2023-09-12T06:51:30;101468.06;;;21.34;100.00
72414;BME280;60995;52.154;4.498;2023-09-12T06:53:46;101453.16;;;21.49;100.00
72414;BME280;60995;52.154;4.498;2023-09-12T06:56:05;101432.53;;;21.60;100.00
72414;BME280;60995;52.154;4.498;2023-09-12T06:58:21;101427.44;;;22.07;100.00
72414;BME280;60995;52.154;4.498;2023-09-12T07:00:38;101417.63;;;22.05;100.00
72414;BME280;60995;52.154;4.498;2023-09-12T07:02:54;101388.09;;;22.34;100.00
72414;BME280;60995;52.154;4.498;2023-09-12T07:05:10;101378.97;;;22.05;100.00
72414;BME280;60995;52.154;4.498;2023-09-12T07:07:27;101373.94;;;22.15;100.00
72414;BME280;60995;52.154;4.498;2023-09-12T07:09:43;101360.41;;;21.98;100.00
72414;BME280;60995;52.154;4.498;2023-09-12T07:11:59;101353.31;;;22.18;100.00
72414;BME280;60995;52.154;4.498;2023-09-12T07:14:15;101329.25;;;22.40;100.00
72414;BME280;60995;52.154;4.498;2023-09-12T07:16:32;101323.13;;;22.51;100.00
72414;BME280;60995;52.154;4.498;2023-09-12T07:18:48;101307.00;;;22.61;100.00
72414;BME280;60995;52.154;4.498;2023-09-12T07:21:06;101300.31;;;22.84;100.00
72414;BME280;60995;52.154;4.498;2023-09-12T07:23:22;101285.53;;;22.63;100.00
72414;BME280;60995;52.154;4.498;2023-09-12T07:25:40;101291.69;;;22.66;100.00
72414;BME280;60995;52.154;4.498;2023-09-12T07:27:57;101294.69;;;22.71;100.00
72414;BME280;60995;52.154;4.498;2023-09-12T07:30:13;101282.53;;;23.40;100.00
72414;BME280;60995;52.154;4.498;2023-09-12T07:32:29;101274.66;;;23.64;100.00
72414;BME280;60995;52.154;4.498;2023-09-12T07:34:45;101261.56;;;24.25;100.00
72414;BME280;60995;52.154;4.498;2023-09-12T07:37:05;101245.25;;;24.49;100.00
72414;BME280;60995;52.154;4.498;2023-09-12T07:39:22;101239.63;;;24.69;100.00
72414;BME280;60995;52.154;4.498;2023-09-12T07:41:38;101238.38;;;24.58;100.00
72414;BME280;60995;52.154;4.498;2023-09-12T07:43:54;101231.75;;;24.66;100.00
72414;BME280;60995;52.154;4.498;2023-09-12T07:46:11;101231.69;;;24.79;100.00
72414;BME280;60995;52.154;4.498;2023-09-12T07:48:28;101237.50;;;24.57;100.00
72414;BME280;60995;52.154;4.498;2023-09-12T07:50:44;101239.63;;;24.69;100.00
72414;BME280;60995;52.154;4.498;2023-09-12T07:53:01;101223.44;;;24.98;100.00
72414;BME280;60995;52.154;4.498;2023-09-12T07:55:17;101225.19;;;25.49;100.00
72414;BME280;60995;52.154;4.498;2023-09-12T07:57:33;101229.09;;;25.16;100.00
72414;BME280;60995;52.154;4.498;2023-09-12T07:59:50;101221.13;;;25.20;100.00
72414;BME280;60995;52.154;4.498;2023-09-12T08:02:06;101217.63;;;26.37;100.00
72414;BME280;60995;52.154;4.498;2023-09-12T08:04:23;101191.38;;;28.82;100.00
72414;BME280;60995;52.154;4.498;2023-09-12T08:06:40;101215.66;;;30.45;100.00
72414;BME280;60995;52.154;4.498;2023-09-12T08:08:57;101245.88;;;30.21;100.00
72414;BME280;60995;52.154;4.498;2023-09-12T08:11:13;101255.13;;;29.65;100.00
72414;BME280;60995;52.154;4.498;2023-09-12T08:13:30;101255.28;;;29.25;100.00
72414;BME280;60995;52.154;4.498;2023-09-12T08:15:46;101258.84;;;29.37;100.00
72414;BME280;60995;52.154;4.498;2023-09-12T08:18:03;101254.75;;;29.11;100.00
72414;BME280;60995;52.154;4.498;2023-09-12T08:20:20;101245.97;;;28.61;100.00
72414;BME280;60995;52.154;4.498;2023-09-12T08:22:37;101249.84;;;28.60;100.00
72414;BME280;60995;52.154;4.498;2023-09-12T08:24:54;101250.53;;;28.79;100.00
72414;BME280;60995;52.154;4.498;2023-09-12T08:27:11;101251.81;;;28.88;100.00
72414;BME280;60995;52.154;4.498;2023-09-12T08:29:30;101261.94;;;29.24;100.00
72414;BME280;60995;52.154;4.498;2023-09-12T08:31:48;101252.88;;;29.16;100.00
72414;BME280;60995;52.154;4.498;2023-09-12T08:34:04;101265.38;;;28.97;100.00
72414;BME280;60995;52.154;4.498;2023-09-12T08:36:20;101258.53;;;29.50;100.00
72414;BME280;60995;52.154;4.498;2023-09-12T08:38:36;101265.25;;;32.45;100.00
72414;BME280;60995;52.154;4.498;2023-09-12T08:40:53;101268.78;;;34.83;100.00
72414;BME280;60995;52.154;4.498;2023-09-12T08:43:09;101267.59;;;36.46;100.00
72414;BME280;60995;52.154;4.498;2023-09-12T08:45:26;101268.13;;;39.11;100.00
72414;BME280;60995;52.154;4.498;2023-09-12T08:47:44;101273.22;;;37.08;100.00
72414;BME280;60995;52.154;4.498;2023-09-12T08:50:02;101256.16;;;36.95;100.00
72414;BME280;60995;52.154;4.498;2023-09-12T08:52:20;101260.16;;;36.94;100.00
72414;BME280;60995;52.154;4.498;2023-09-12T08:54:36;101267.34;;;35.94;100.00
72414;BME280;60995;52.154;4.498;2023-09-12T08:56:53;101256.25;;;36.70;100.00
72414;BME280;60995;52.154;4.498;2023-09-12T08:59:10;101256.22;;;37.61;100.00
72414;BME280;60995;52.154;4.498;2023-09-12T09:01:30;101255.59;;;37.97;92.83
72414;BME280;60995;52.154;4.498;2023-09-12T09:03:48;101253.53;;;39.03;92.40
72414;BME280;60995;52.154;4.498;2023-09-12T09:06:05;101261.84;;;37.80;91.51
72414;BME280;60995;52.154;4.498;2023-09-12T09:08:23;101249.94;;;37.64;94.65
72414;BME280;60995;52.154;4.498;2023-09-12T09:10:54;101252.66;;;40.02;87.24
72414;BME280;60995;52.154;4.498;2023-09-12T09:13:14;101256.03;;;39.19;85.23
72414;BME280;60995;52.154;4.498;2023-09-12T09:15:30;101255.47;;;39.62;85.53
72414;BME280;60995;52.154;4.498;2023-09-12T09:17:47;101252.00;;;38.97;87.95
72414;BME280;60995;52.154;4.498;2023-09-12T09:20:04;101247.88;;;37.83;88.76
72414;BME280;60995;52.154;4.498;2023-09-12T09:22:25;101266.03;;;36.10;96.22
72414;BME280;60995;52.154;4.498;2023-09-12T09:24:41;101259.44;;;34.37;100.00
72414;BME280;60995;52.154;4.498;2023-09-12T09:26:58;101275.00;;;34.04;100.00
72414;BME280;60995;52.154;4.498;2023-09-12T09:29:18;101267.91;;;34.22;100.00
72414;BME280;60995;52.154;4.498;2023-09-12T09:31:40;101268.47;;;34.34;100.00
72414;BME280;60995;52.154;4.498;2023-09-12T09:34:00;101277.53;;;34.00;100.00
72414;BME280;60995;52.154;4.498;2023-09-12T09:36:17;101274.22;;;33.41;100.00
72414;BME280;60995;52.154;4.498;2023-09-12T09:38:34;101280.41;;;33.59;100.00
72414;BME280;60995;52.154;4.498;2023-09-12T09:40:51;101278.16;;;33.40;100.00
72414;BME280;60995;52.154;4.498;2023-09-12T09:43:08;101283.22;;;33.28;100.00
72414;BME280;60995;52.154;4.498;2023-09-12T09:45:24;101284.19;;;34.30;100.00
72414;BME280;60995;52.154;4.498;2023-09-12T09:47:43;101291.91;;;34.74;100.00
72414;BME280;60995;52.154;4.498;2023-09-12T09:49:59;101290.91;;;34.50;100.00
72414;BME280;60995;52.154;4.498;2023-09-12T09:52:15;101293.06;;;32.41;100.00
72414;BME280;60995;52.154;4.498;2023-09-12T09:54:32;101298.63;;;32.31;100.00
72414;BME280;60995;52.154;4.498;2023-09-12T09:56:50;101299.75;;;31.92;100.00
72414;BME280;60995;52.154;4.498;2023-09-12T09:59:14;101304.88;;;32.48;100.00
72414;BME280;60995;52.154;4.498;2023-09-12T10:01:37;101293.78;;;32.79;100.00
72414;BME280;60995;52.154;4.498;2023-09-12T10:03:59;101293.41;;;32.65;100.00
72414;BME280;60995;52.154;4.498;2023-09-12T10:06:18;101304.78;;;32.28;100.00
72414;BME280;60995;52.154;4.498;2023-09-12T10:08:36;101294.00;;;32.14;100.00
72414;BME280;60995;52.154;4.498;2023-09-12T10:10:56;101300.59;;;31.23;100.00
72414;BME280;60995;52.154;4.498;2023-09-12T10:13:14;101299.59;;;30.62;100.00
72414;BME280;60995;52.154;4.498;2023-09-12T10:15:34;101309.66;;;30.19;100.00
72414;BME280;60995;52.154;4.498;2023-09-12T10:17:57;101301.00;;;30.20;100.00
72414;BME280;60995;52.154;4.498;2023-09-12T10:20:16;101300.19;;;29.69;100.00
72414;BME280;60995;52.154;4.498;2023-09-12T10:22:40;101312.75;;;29.49;100.00
72414;BME280;60995;52.154;4.498;2023-09-12T10:25:03;101303.91;;;29.41;100.00
72414;BME280;60995;52.154;4.498;2023-09-12T10:27:22;101307.31;;;29.60;100.00
72414;BME280;60995;52.154;4.498;2023-09-12T10:29:40;101306.63;;;29.35;100.00
72414;BME280;60995;52.154;4.498;2023-09-12T10:31:56;101308.03;;;28.92;100.00
72414;BME280;60995;52.154;4.498;2023-09-12T10:34:14;101305.78;;;29.35;100.00
72414;BME280;60995;52.154;4.498;2023-09-12T10:36:32;101295.97;;;29.49;100.00
72414;BME280;60995;52.154;4.498;2023-09-12T10:38:50;101308.75;;;30.13;100.00
72414;BME280;60995;52.154;4.498;2023-09-12T10:41:09;101300.16;;;31.09;100.00
72414;BME280;60995;52.154;4.498;2023-09-12T10:43:28;101289.84;;;32.17;100.00
72414;BME280;60995;52.154;4.498;2023-09-12T10:45:46;101288.59;;;32.03;100.00
72414;BME280;60995;52.154;4.498;2023-09-12T10:48:03;101297.78;;;30.73;100.00
72414;BME280;60995;52.154;4.498;2023-09-12T10:50:20;101294.97;;;30.29;100.00
72414;BME280;60995;52.154;4.498;2023-09-12T10:52:36;101292.09;;;30.24;100.00
72414;BME280;60995;52.154;4.498;2023-09-12T10:54:55;101296.16;;;29.60;100.00
72414;BME280;60995;52.154;4.498;2023-09-12T10:57:12;101298.69;;;29.44;100.00
72414;BME280;60995;52.154;4.498;2023-09-12T10:59:29;101297.50;;;29.57;100.00
72414;BME280;60995;52.154;4.498;2023-09-12T11:01:51;101296.00;;;29.20;100.00
72414;BME280;60995;52.154;4.498;2023-09-12T11:06:35;101297.56;;;29.16;100.00
72414;BME280;60995;52.154;4.498;2023-09-12T11:11:30;101283.72;;;31.50;100.00
72414;BME280;60995;52.154;4.498;2023-09-12T11:13:46;101284.06;;;32.39;100.00
72414;BME280;60995;52.154;4.498;2023-09-12T11:16:13;101300.44;;;31.67;100.00
72414;BME280;60995;52.154;4.498;2023-09-12T11:18:30;101304.53;;;31.27;100.00
72414;BME280;60995;52.154;4.498;2023-09-12T11:20:50;101312.25;;;30.26;100.00
72414;BME280;60995;52.154;4.498;2023-09-12T11:23:19;101312.06;;;29.59;100.00
72414;BME280;60995;52.154;4.498;2023-09-12T11:25:35;101321.25;;;28.44;100.00
72414;BME280;60995;52.154;4.498;2023-09-12T11:30:08;101323.19;;;27.96;100.00
72414;BME280;60995;52.154;4.498;2023-09-12T11:32:35;101337.16;;;27.84;100.00
72414;BME280;60995;52.154;4.498;2023-09-12T11:34:53;101330.47;;;27.62;100.00
72414;BME280;60995;52.154;4.498;2023-09-12T11:37:09;101317.34;;;28.57;100.00
72414;BME280;60995;52.154;4.498;2023-09-12T11:39:39;101306.38;;;30.44;100.00
72414;BME280;60995;52.154;4.498;2023-09-12T11:41:57;101301.00;;;31.09;100.00
72414;BME280;60995;52.154;4.498;2023-09-12T11:44:14;101296.88;;;31.82;100.00
72414;BME280;60995;52.154;4.498;2023-09-12T11:46:30;101293.50;;;32.23;100.00
72414;BME280;60995;52.154;4.498;2023-09-12T11:48:48;101299.47;;;31.56;100.00
72414;BME280;60995;52.154;4.498;2023-09-12T11:51:07;101300.13;;;31.36;100.00
72414;BME280;60995;52.154;4.498;2023-09-12T11:53:25;101298.50;;;31.13;100.00
72414;BME280;60995;52.154;4.498;2023-09-12T11:55:48;101305.09;;;30.74;100.00
72414;BME280;60995;52.154;4.498;2023-09-12T11:58:07;101311.56;;;29.96;100.00
72414;BME280;60995;52.154;4.498;2023-09-12T12:00:23;101302.91;;;29.98;100.00
72414;BME280;60995;52.154;4.498;2023-09-12T12:02:43;101311.19;;;30.71;100.00